Hauptseite
METAR-TAF:

METAR-TAF

Flughäfen :

Flughafen Moskau-Scheremetjewo

Moskau-Scheremetjewo, Russland

Breite: 55-58N, Länge: 037-25E, Höhe: 190 m

Beobachtung

Neuester Wetterbericht von vor 45 Minuten, um 09:30 UTC
Wind 4 kt aus Süd/Südwest, variierte zwischen Süd/Südost und Südwest
Temperatur 1°C
Luftfeuchtigkeit 51%
Luftdruck 1044 hPa
Sichtweite 10 km oder mehr
keine Wolken unter 1500 m und keine Kumulonimbus oder Gewitterwolken

METAR: UUEE 160930Z 20002MPS 160V230 CAVOK 01/M08 Q1044 R24C/190045 R24L/150051 NOSIG

Zeit: 13:15 (10:15 UTC)

Prognose

Neuester Wetterbericht von vor 2 Stunden und 15 Minuten, um 08:00 UTC
Gültige Prognose vom 16 um 09 UTC bis 17 um 09 UTC
Wind 10 kt aus Südwest
Sichtweite: 9000 m
Aufgelockert bewölkt in der Höhe von 3000 ft

TAF: UUEE 160800Z 1609/1709 23005MPS 9000 SCT030 TX00/1612Z TNM07/1703Z

Wetterbeobachtungen und Prognosen von mehr als 4000 Flughäfen (METAR und TAF Bericht).

Die verfügbaren Stationen werden durch gelbe und rote Markierungen auf der Karte dargestellt.

Führen Sie die Maus auf sie, um den Namen der Station zu sehen.

Darauf klicken, um die Beobachtung von Wetterbeobachtungen und Prognosen zu sehen.

Um die Karte zu ändern : klicken Sie auf den grünen Tasten mit einem schwarzen Kreuz Zum Vergrößern, auf den grünen Button mit einem Gedankenstrich zu verkleinern, oder auf die grünen Pfeile für benachbarte Karten.


METAR-TAF: